createdAt,value
2018-09-15T00:00:14.571Z,75.03
2018-09-15T00:02:43.826Z,74.81
2018-09-15T00:05:13.125Z,75.28
2018-09-15T00:07:42.179Z,75.85
2018-09-15T00:10:11.404Z,75.70
2018-09-15T00:12:40.524Z,75.82
2018-09-15T00:15:10.963Z,75.81
2018-09-15T00:17:41.356Z,76.38
2018-09-15T00:20:10.525Z,76.55
2018-09-15T00:22:39.592Z,77.56
2018-09-15T00:25:08.699Z,77.95
2018-09-15T00:27:37.676Z,77.92
2018-09-15T00:30:06.571Z,78.02
2018-09-15T00:32:35.751Z,78.50
2018-09-15T00:37:39.085Z,77.91
2018-09-15T00:40:08.246Z,78.01
2018-09-15T00:42:37.570Z,78.82
2018-09-15T00:45:06.878Z,78.55
2018-09-15T00:47:35.631Z,78.97
2018-09-15T00:50:04.660Z,78.13
2018-09-15T00:52:33.662Z,77.81
2018-09-15T00:55:02.679Z,77.67
2018-09-15T00:57:31.514Z,77.49
2018-09-15T01:00:01.417Z,77.97
2018-09-15T01:02:30.610Z,78.10
2018-09-15T01:04:59.340Z,78.82
2018-09-15T01:07:28.403Z,79.25
2018-09-15T01:09:57.326Z,79.94
2018-09-15T01:12:26.213Z,80.21
2018-09-15T01:14:55.835Z,80.11
2018-09-15T01:17:24.710Z,80.41
2018-09-15T01:19:54.125Z,80.34
2018-09-15T01:22:23.671Z,79.57
2018-09-15T01:24:52.717Z,80.03
2018-09-15T01:27:21.901Z,79.59
2018-09-15T01:29:50.935Z,79.98
2018-09-15T01:32:20.115Z,80.80
2018-09-15T01:34:49.523Z,80.98
2018-09-15T01:37:18.779Z,81.14
2018-09-15T01:39:47.592Z,81.03
2018-09-15T01:42:17.424Z,81.54
2018-09-15T01:44:47.106Z,82.06
2018-09-15T01:47:15.914Z,81.95
2018-09-15T01:49:44.964Z,82.06
2018-09-15T01:52:14.163Z,82.24
2018-09-15T01:54:43.635Z,81.86
2018-09-15T01:57:12.998Z,81.81
2018-09-15T01:59:42.279Z,81.93
2018-09-15T02:02:12.096Z,82.15
2018-09-15T02:04:41.252Z,82.88
2018-09-15T02:07:10.777Z,83.22
2018-09-15T02:09:39.807Z,82.89
2018-09-15T02:12:08.640Z,82.88
2018-09-15T02:14:37.956Z,82.41
2018-09-15T02:17:07.138Z,81.57
2018-09-15T02:19:36.222Z,81.42
2018-09-15T02:22:05.554Z,80.95
2018-09-15T02:24:34.371Z,80.29
2018-09-15T02:27:03.187Z,78.84
2018-09-15T02:29:32.647Z,77.90
2018-09-15T02:32:02.063Z,78.67
2018-09-15T02:34:30.993Z,78.70
2018-09-15T02:37:00.425Z,79.91
2018-09-15T02:39:29.298Z,81.27
2018-09-15T02:41:58.307Z,82.04
2018-09-15T02:44:27.419Z,82.39
2018-09-15T02:46:56.679Z,82.55
2018-09-15T02:49:25.463Z,83.04
2018-09-15T02:51:54.515Z,82.92
2018-09-15T02:54:23.351Z,83.04
2018-09-15T02:56:52.787Z,82.81
2018-09-15T02:59:22.955Z,82.58
2018-09-15T03:01:52.078Z,82.55
2018-09-15T03:04:20.800Z,82.72
2018-09-15T03:06:49.902Z,83.19
2018-09-15T03:09:18.777Z,83.00
2018-09-15T03:11:47.521Z,83.15
2018-09-15T03:14:16.899Z,83.42
2018-09-15T03:16:45.836Z,83.55
2018-09-15T03:19:14.869Z,83.90
2018-09-15T03:21:44.499Z,83.58
2018-09-15T03:24:13.318Z,83.76
2018-09-15T03:26:42.046Z,84.05
2018-09-15T03:29:11.314Z,83.32
2018-09-15T03:31:40.233Z,83.74
2018-09-15T03:34:09.029Z,83.79
2018-09-15T03:36:38.036Z,84.27
2018-09-15T03:39:09.879Z,85.17
2018-09-15T03:41:38.900Z,84.68
2018-09-15T03:44:08.315Z,84.77
2018-09-15T03:46:37.171Z,84.84
2018-09-15T03:49:06.139Z,85.04
2018-09-15T03:51:35.182Z,84.95
2018-09-15T03:54:04.456Z,84.78
2018-09-15T03:56:34.494Z,84.83
2018-09-15T03:59:04.206Z,85.46
2018-09-15T04:01:32.971Z,85.31
2018-09-15T04:04:02.091Z,84.26
2018-09-15T04:06:31.702Z,83.38
2018-09-15T04:09:00.790Z,83.16
2018-09-15T04:11:30.186Z,82.82
2018-09-15T04:13:59.827Z,81.61
2018-09-15T04:16:28.874Z,81.24
2018-09-15T04:18:57.793Z,80.24
2018-09-15T04:21:27.214Z,79.18
2018-09-15T04:23:56.288Z,78.95
2018-09-15T04:26:25.279Z,76.43
2018-09-15T04:28:54.567Z,74.40
2018-09-15T04:31:23.367Z,72.47
2018-09-15T04:33:52.266Z,70.42
2018-09-15T04:36:21.627Z,68.06
2018-09-15T04:38:50.367Z,66.40
2018-09-15T04:41:19.388Z,64.47
2018-09-15T04:43:49.117Z,61.72
2018-09-15T04:46:17.861Z,58.98
2018-09-15T04:48:46.641Z,57.63
2018-09-15T04:51:15.863Z,55.46
2018-09-15T04:53:45.069Z,53.82
2018-09-15T04:56:13.906Z,51.89
2018-09-15T04:58:43.336Z,50.79
2018-09-15T05:01:12.202Z,48.73
2018-09-15T05:03:41.084Z,46.93
2018-09-15T05:06:09.951Z,46.41
2018-09-15T05:08:40.056Z,44.55
2018-09-15T05:11:08.919Z,43.36
2018-09-15T05:13:39.043Z,42.77
2018-09-15T05:16:07.823Z,42.11
2018-09-15T05:18:36.746Z,41.32
2018-09-15T05:21:05.767Z,40.09
2018-09-15T05:23:34.693Z,39.17
2018-09-15T05:26:03.719Z,39.59
2018-09-15T05:28:33.242Z,39.60
2018-09-15T05:31:02.434Z,38.72
2018-09-15T05:33:31.269Z,37.64
2018-09-15T05:36:01.042Z,37.34
2018-09-15T05:38:30.032Z,36.90
2018-09-15T05:40:58.967Z,36.42
2018-09-15T05:43:28.850Z,35.42
2018-09-15T05:45:57.698Z,35.38
2018-09-15T05:48:26.729Z,35.67
2018-09-15T05:50:55.879Z,35.22
2018-09-15T05:53:24.861Z,40.21
2018-09-15T05:55:53.938Z,40.50
2018-09-15T05:58:23.098Z,40.60
2018-09-15T06:00:52.523Z,41.01
2018-09-15T06:03:21.386Z,43.16
2018-09-15T06:05:50.514Z,41.10
2018-09-15T06:08:19.587Z,41.38
2018-09-15T06:10:48.650Z,41.54
2018-09-15T06:13:18.383Z,41.52
2018-09-15T06:15:47.398Z,39.19
2018-09-15T06:18:16.259Z,40.80
2018-09-15T06:20:45.497Z,40.63
2018-09-15T06:23:14.342Z,39.82
2018-09-15T06:25:43.443Z,39.36
2018-09-15T06:28:12.383Z,37.92
2018-09-15T06:30:41.374Z,36.33
2018-09-15T06:33:10.938Z,35.46
2018-09-15T06:35:40.199Z,33.62
2018-09-15T06:38:09.372Z,33.98
2018-09-15T06:40:38.473Z,33.50
2018-09-15T06:43:07.491Z,32.63
2018-09-15T06:45:37.346Z,32.79
2018-09-15T06:48:06.727Z,32.57
2018-09-15T06:50:36.388Z,32.61
2018-09-15T06:53:05.595Z,32.50
2018-09-15T06:55:35.288Z,32.61
2018-09-15T06:58:04.531Z,31.93
2018-09-15T07:00:34.112Z,32.46
2018-09-15T07:03:03.081Z,32.13
2018-09-15T07:05:32.375Z,32.37
2018-09-15T07:08:01.944Z,32.15
2018-09-15T07:10:31.534Z,31.05
2018-09-15T07:13:00.841Z,30.46
2018-09-15T07:15:29.783Z,32.21
2018-09-15T07:17:58.950Z,32.67
2018-09-15T07:20:28.800Z,33.41
2018-09-15T07:22:57.540Z,34.61
2018-09-15T07:25:27.179Z,33.80
2018-09-15T07:27:56.092Z,33.26
2018-09-15T07:30:25.341Z,33.42
2018-09-15T07:32:54.981Z,32.60
2018-09-15T07:35:24.191Z,32.02
2018-09-15T07:37:53.070Z,31.82
2018-09-15T07:40:22.116Z,31.84
2018-09-15T07:42:51.302Z,31.84
2018-09-15T07:45:20.289Z,32.59
2018-09-15T07:47:49.097Z,31.60
2018-09-15T07:50:18.334Z,30.98
2018-09-15T07:52:48.104Z,31.19
2018-09-15T07:55:17.003Z,30.85
2018-09-15T07:57:46.783Z,29.96
2018-09-15T08:00:15.680Z,30.37
2018-09-15T08:02:44.705Z,31.22
2018-09-15T08:05:13.596Z,31.10
2018-09-15T08:07:42.502Z,30.76
2018-09-15T08:10:11.972Z,32.02
2018-09-15T08:12:41.619Z,32.21
2018-09-15T08:15:10.450Z,33.86
2018-09-15T08:17:39.490Z,33.35
2018-09-15T08:20:08.819Z,33.83
2018-09-15T08:22:37.895Z,34.97
2018-09-15T08:25:07.183Z,35.01
2018-09-15T08:27:36.212Z,35.69
2018-09-15T08:30:05.185Z,34.95
2018-09-15T08:32:34.068Z,35.39
2018-09-15T08:35:03.548Z,33.42
2018-09-15T08:37:33.055Z,31.87
2018-09-15T08:40:02.283Z,31.68
2018-09-15T08:42:31.547Z,31.61
2018-09-15T08:45:00.485Z,31.95
2018-09-15T08:47:29.879Z,32.09
2018-09-15T08:49:59.754Z,33.01
2018-09-15T08:52:28.866Z,32.73
2018-09-15T08:54:58.267Z,32.41
2018-09-15T08:57:27.551Z,32.78
2018-09-15T08:59:57.095Z,33.48
2018-09-15T09:02:26.155Z,33.83
2018-09-15T09:04:55.339Z,34.35
2018-09-15T09:07:24.303Z,34.89
2018-09-15T09:09:53.496Z,33.33
2018-09-15T09:12:22.834Z,33.02
2018-09-15T09:14:52.511Z,33.48
2018-09-15T09:17:21.319Z,32.96
2018-09-15T09:19:51.064Z,32.56
2018-09-15T09:22:20.011Z,32.25
2018-09-15T09:24:49.112Z,31.58
2018-09-15T09:27:18.792Z,32.80
2018-09-15T09:29:48.186Z,31.88
2018-09-15T09:32:17.081Z,31.36
2018-09-15T09:34:45.984Z,31.17
2018-09-15T09:37:15.027Z,31.08
2018-09-15T09:39:44.248Z,31.20
2018-09-15T09:42:13.645Z,30.97
2018-09-15T09:44:42.771Z,32.39
2018-09-15T09:47:12.199Z,32.91
2018-09-15T09:49:41.799Z,32.90
2018-09-15T09:52:11.123Z,32.67
2018-09-15T09:54:39.983Z,33.00
2018-09-15T09:57:09.223Z,33.21
2018-09-15T09:59:38.304Z,33.60
2018-09-15T10:02:13.367Z,32.95
2018-09-15T10:04:42.289Z,32.76
2018-09-15T10:07:11.536Z,32.15
2018-09-15T10:09:41.466Z,32.72
2018-09-15T10:12:10.236Z,31.99
2018-09-15T10:14:39.238Z,32.43
2018-09-15T10:17:08.400Z,32.55
2018-09-15T10:19:37.596Z,30.35
2018-09-15T10:22:06.786Z,30.62
2018-09-15T10:24:35.947Z,30.87
2018-09-15T10:27:04.918Z,31.51
2018-09-15T10:29:34.322Z,31.49
2018-09-15T10:32:04.471Z,31.80
2018-09-15T10:34:34.006Z,30.60
2018-09-15T10:37:03.053Z,30.91
2018-09-15T10:39:32.154Z,31.67
2018-09-15T10:42:01.290Z,31.07
2018-09-15T10:44:30.373Z,31.40
2018-09-15T10:46:59.627Z,31.67
2018-09-15T10:49:28.552Z,30.85
2018-09-15T10:51:57.511Z,30.88
2018-09-15T10:54:26.838Z,30.12
2018-09-15T10:56:55.763Z,29.90
2018-09-15T10:59:24.618Z,29.59
2018-09-15T11:01:54.649Z,30.05
2018-09-15T11:04:23.819Z,30.66
2018-09-15T11:06:52.920Z,30.12
2018-09-15T11:09:22.148Z,29.12
2018-09-15T11:11:51.213Z,28.25
2018-09-15T11:14:20.114Z,27.80
2018-09-15T11:16:50.238Z,27.92
2018-09-15T11:19:19.395Z,28.25
2018-09-15T11:21:48.431Z,28.28
2018-09-15T11:24:17.651Z,28.63
2018-09-15T11:26:46.720Z,28.94
2018-09-15T11:29:16.114Z,27.91
2018-09-15T11:31:45.263Z,27.52
2018-09-15T11:34:14.730Z,27.09
2018-09-15T11:36:43.719Z,26.78
2018-09-15T11:39:13.502Z,27.08
2018-09-15T11:41:42.431Z,26.28
2018-09-15T11:44:11.524Z,25.58
2018-09-15T11:46:41.364Z,25.29
2018-09-15T11:49:10.648Z,26.36
2018-09-15T11:51:39.651Z,26.83
2018-09-15T11:54:09.799Z,26.65
2018-09-15T11:56:39.335Z,27.04
2018-09-15T11:59:08.362Z,27.33
2018-09-15T12:01:37.535Z,27.68
2018-09-15T12:04:07.073Z,28.07
2018-09-15T12:06:36.198Z,28.02
2018-09-15T12:09:07.021Z,28.17
2018-09-15T12:11:36.223Z,29.39
2018-09-15T12:14:05.766Z,29.70
2018-09-15T12:16:35.140Z,30.09
2018-09-15T12:19:04.388Z,29.86
2018-09-15T12:21:33.502Z,29.77
2018-09-15T12:24:03.244Z,29.37
2018-09-15T12:26:32.412Z,29.35
2018-09-15T12:29:01.180Z,30.04
2018-09-15T12:31:30.107Z,30.36
2018-09-15T12:34:00.522Z,29.92
2018-09-15T12:36:29.411Z,30.13
2018-09-15T12:38:58.523Z,30.04
2018-09-15T12:41:27.487Z,29.51
2018-09-15T12:43:57.010Z,30.27
2018-09-15T12:46:26.426Z,32.09
2018-09-15T12:48:55.382Z,32.61
2018-09-15T12:51:24.299Z,32.51
2018-09-15T12:53:53.305Z,32.52
2018-09-15T12:56:22.099Z,32.47
2018-09-15T12:58:51.092Z,31.76
2018-09-15T13:01:20.401Z,31.64
2018-09-15T13:03:49.270Z,31.52
2018-09-15T13:06:18.701Z,31.22
2018-09-15T13:08:47.922Z,31.00
2018-09-15T13:11:16.777Z,29.77
2018-09-15T13:13:45.554Z,30.30
2018-09-15T13:16:14.683Z,30.63
2018-09-15T13:18:44.028Z,30.20
2018-09-15T13:21:12.934Z,30.04
2018-09-15T13:23:42.932Z,30.16
2018-09-15T13:26:11.862Z,29.89
2018-09-15T13:28:40.750Z,29.89
2018-09-15T13:31:09.808Z,29.80
2018-09-15T13:33:38.467Z,29.44
2018-09-15T13:36:07.590Z,29.91
2018-09-15T13:38:37.082Z,30.06
2018-09-15T13:41:06.146Z,30.64
2018-09-15T13:43:35.638Z,31.84
2018-09-15T13:46:05.999Z,31.95
2018-09-15T13:48:35.266Z,32.92
2018-09-15T13:51:05.398Z,33.69
2018-09-15T13:53:34.609Z,34.30
2018-09-15T13:56:04.415Z,34.19
2018-09-15T13:58:33.613Z,34.16
2018-09-15T14:01:03.138Z,34.17
2018-09-15T14:03:32.115Z,33.84
2018-09-15T14:06:01.411Z,33.63
2018-09-15T14:08:31.667Z,33.78
2018-09-15T14:11:00.649Z,34.24
2018-09-15T14:13:29.623Z,34.12
2018-09-15T14:15:59.244Z,34.07
2018-09-15T14:18:28.534Z,33.09
2018-09-15T14:20:57.915Z,33.40
2018-09-15T14:23:27.679Z,34.76
2018-09-15T14:25:56.746Z,35.15
2018-09-15T14:28:25.973Z,35.05
2018-09-15T14:30:55.360Z,34.80
2018-09-15T14:33:24.543Z,35.53
2018-09-15T14:35:54.099Z,35.56
2018-09-15T14:38:23.878Z,35.72
2018-09-15T14:40:53.174Z,36.39
2018-09-15T14:43:22.372Z,36.25
2018-09-15T14:45:51.796Z,37.09
2018-09-15T14:48:20.995Z,36.96
2018-09-15T14:50:50.071Z,36.28
2018-09-15T14:53:19.044Z,36.07
2018-09-15T14:55:48.771Z,35.68
2018-09-15T14:58:18.897Z,36.43
2018-09-15T15:00:47.791Z,36.12
2018-09-15T15:03:16.767Z,36.13
2018-09-15T15:05:45.860Z,36.65
2018-09-15T15:08:14.752Z,37.16
2018-09-15T15:10:44.989Z,36.91
2018-09-15T15:13:14.215Z,36.34
2018-09-15T15:15:43.197Z,37.24
2018-09-15T15:18:12.646Z,36.59
2018-09-15T15:20:42.027Z,36.71
2018-09-15T15:23:10.884Z,36.85
2018-09-15T15:25:40.428Z,37.12
2018-09-15T15:28:10.578Z,37.04
2018-09-15T15:30:39.779Z,37.68
2018-09-15T15:33:08.894Z,37.64
2018-09-15T15:35:38.139Z,37.41
2018-09-15T15:38:06.935Z,37.70
2018-09-15T15:40:35.944Z,38.64
2018-09-15T15:43:05.371Z,38.94
2018-09-15T15:45:34.147Z,39.16
2018-09-15T15:48:03.046Z,39.88
2018-09-15T15:50:32.575Z,40.03
2018-09-15T15:53:01.524Z,40.50
2018-09-15T15:55:30.529Z,40.49
2018-09-15T15:58:00.047Z,40.65
2018-09-15T16:00:29.607Z,40.89
2018-09-15T16:02:58.429Z,41.16
2018-09-15T16:05:27.631Z,41.37
2018-09-15T16:07:56.631Z,41.38
2018-09-15T16:10:25.530Z,41.68
2018-09-15T16:12:54.451Z,41.33
2018-09-15T16:15:23.512Z,41.35
2018-09-15T16:17:52.390Z,41.42
2018-09-15T16:20:21.694Z,41.44
2018-09-15T16:22:50.595Z,41.38
2018-09-15T16:25:19.591Z,42.11
2018-09-15T16:27:50.034Z,44.76
2018-09-15T16:30:19.119Z,46.41
2018-09-15T16:32:48.207Z,47.21
2018-09-15T16:35:17.351Z,48.33
2018-09-15T16:37:46.807Z,48.38
2018-09-15T16:40:16.031Z,49.05
2018-09-15T16:42:45.355Z,49.41
2018-09-15T16:45:14.274Z,51.14
2018-09-15T16:47:43.392Z,53.87
2018-09-15T16:50:12.402Z,55.89
2018-09-15T16:52:41.426Z,54.26
2018-09-15T16:55:10.819Z,55.10
2018-09-15T16:57:39.980Z,54.44
2018-09-15T17:00:09.070Z,57.17
2018-09-15T17:02:38.324Z,58.32
2018-09-15T17:05:07.189Z,58.49
2018-09-15T17:07:35.874Z,58.89
2018-09-15T17:10:05.328Z,58.38
2018-09-15T17:12:34.372Z,59.22
2018-09-15T17:15:03.182Z,59.59
2018-09-15T17:17:33.240Z,58.91
2018-09-15T17:20:02.377Z,59.28
2018-09-15T17:22:31.912Z,59.05
2018-09-15T17:25:01.098Z,59.25
2018-09-15T17:27:30.175Z,58.74
2018-09-15T17:29:59.901Z,59.25
2018-09-15T17:32:28.858Z,58.91
2018-09-15T17:34:58.486Z,59.30
2018-09-15T17:37:27.363Z,58.87
2018-09-15T17:39:56.489Z,58.80
2018-09-15T17:42:25.698Z,58.45
2018-09-15T17:44:54.686Z,58.61
2018-09-15T17:47:23.983Z,58.29
2018-09-15T17:49:52.777Z,57.97
2018-09-15T17:52:21.965Z,58.28
2018-09-15T17:54:51.361Z,57.79
2018-09-15T17:57:20.254Z,57.08
2018-09-15T17:59:49.295Z,57.02
2018-09-15T18:02:19.238Z,57.23
2018-09-15T18:04:48.287Z,57.46
2018-09-15T18:07:17.158Z,57.79
2018-09-15T18:09:46.920Z,57.98
2018-09-15T18:12:15.898Z,57.34
2018-09-15T18:14:45.076Z,57.38
2018-09-15T18:17:14.605Z,57.42
2018-09-15T18:19:44.302Z,58.06
2018-09-15T18:22:13.387Z,57.74
2018-09-15T18:24:42.305Z,58.20
2018-09-15T18:27:11.278Z,58.15
2018-09-15T18:29:40.147Z,58.43
2018-09-15T18:32:09.266Z,58.41
2018-09-15T18:34:38.159Z,57.96
2018-09-15T18:37:07.300Z,58.29
2018-09-15T18:39:36.450Z,58.74
2018-09-15T18:42:05.553Z,58.61
2018-09-15T18:44:35.079Z,59.09
2018-09-15T18:47:04.165Z,58.71
2018-09-15T18:49:34.171Z,59.13
2018-09-15T18:52:03.294Z,59.42
2018-09-15T18:54:32.107Z,59.35
2018-09-15T18:57:01.222Z,59.56
2018-09-15T18:59:30.395Z,59.53
2018-09-15T19:02:00.047Z,60.19
2018-09-15T19:04:29.576Z,60.61
2018-09-15T19:06:59.760Z,60.34
2018-09-15T19:09:29.709Z,60.33
2018-09-15T19:11:59.606Z,60.58
2018-09-15T19:14:28.427Z,60.80
2018-09-15T19:16:57.310Z,61.03
2018-09-15T19:19:26.047Z,61.67
2018-09-15T19:21:55.445Z,61.42
2018-09-15T19:24:24.404Z,61.14
2018-09-15T19:26:53.329Z,61.59
2018-09-15T19:29:22.692Z,61.40
2018-09-15T19:31:51.700Z,61.44
2018-09-15T19:34:20.686Z,61.46
2018-09-15T19:36:50.318Z,62.04
2018-09-15T19:39:19.302Z,62.20
2018-09-15T19:41:49.068Z,61.97
2018-09-15T19:44:18.627Z,61.87
2018-09-15T19:46:47.749Z,62.37
2018-09-15T19:49:16.766Z,62.27
2018-09-15T19:51:45.953Z,62.33
2018-09-15T19:54:14.787Z,62.44
2018-09-15T19:56:44.378Z,62.89
2018-09-15T19:59:13.684Z,62.63
2018-09-15T20:01:42.671Z,62.65
2018-09-15T20:04:12.086Z,62.72
2018-09-15T20:06:40.918Z,63.00
2018-09-15T20:09:10.886Z,62.64
2018-09-15T20:11:39.770Z,62.62
2018-09-15T20:14:09.457Z,62.96
2018-09-15T20:16:36.970Z,62.96
2018-09-15T20:19:04.573Z,62.69
2018-09-15T20:21:32.019Z,63.01
2018-09-15T20:24:00.855Z,63.64
2018-09-15T20:26:29.779Z,63.32
2018-09-15T20:28:59.073Z,63.46
2018-09-15T20:31:27.934Z,63.71
2018-09-15T20:33:58.021Z,63.44
2018-09-15T20:36:26.734Z,63.68
2018-09-15T20:38:55.671Z,63.98
2018-09-15T20:41:25.147Z,63.81
2018-09-15T20:43:54.268Z,64.13
2018-09-15T20:46:23.147Z,64.51
2018-09-15T20:48:52.055Z,64.47
2018-09-15T20:51:21.579Z,64.47
2018-09-15T20:53:50.434Z,64.06
2018-09-15T20:56:19.545Z,64.23
2018-09-15T20:58:48.428Z,64.26
2018-09-15T21:01:17.215Z,64.54
2018-09-15T21:03:46.187Z,64.59
2018-09-15T21:06:15.478Z,64.06
2018-09-15T21:08:45.038Z,64.15
2018-09-15T21:11:14.095Z,64.46
2018-09-15T21:13:43.219Z,63.93
2018-09-15T21:16:12.423Z,63.94
2018-09-15T21:18:42.758Z,63.74
2018-09-15T21:21:12.003Z,63.81
2018-09-15T21:23:41.481Z,64.36
2018-09-15T21:26:10.483Z,64.19
2018-09-15T21:28:39.346Z,63.89
2018-09-15T21:31:08.432Z,63.95
2018-09-15T21:33:37.642Z,64.35
2018-09-15T21:36:06.628Z,64.78
2018-09-15T21:38:36.266Z,64.71
2018-09-15T21:41:05.602Z,65.15
2018-09-15T21:43:34.708Z,65.09
2018-09-15T21:46:03.887Z,65.31
2018-09-15T21:48:32.754Z,65.41
2018-09-15T21:51:02.437Z,65.67
2018-09-15T21:53:31.449Z,65.91
2018-09-15T21:56:00.648Z,66.41
2018-09-15T21:58:29.614Z,66.11
2018-09-15T22:01:04.670Z,66.82
2018-09-15T22:03:39.035Z,66.95
2018-09-15T22:06:08.496Z,66.76
2018-09-15T22:08:37.475Z,67.29
2018-09-15T22:11:06.584Z,67.30
2018-09-15T22:13:35.796Z,67.66
2018-09-15T22:16:04.983Z,67.97
2018-09-15T22:18:33.850Z,67.49
2018-09-15T22:21:04.128Z,67.85
2018-09-15T22:23:33.094Z,67.56
2018-09-15T22:26:02.702Z,68.25
2018-09-15T22:28:32.528Z,68.56
2018-09-15T22:31:01.502Z,68.61
2018-09-15T22:33:30.498Z,69.08
2018-09-15T22:35:59.976Z,69.50
2018-09-15T22:38:29.518Z,69.81
2018-09-15T22:40:58.494Z,69.93
2018-09-15T22:43:27.614Z,69.72
2018-09-15T22:45:56.290Z,69.85
2018-09-15T22:48:25.159Z,70.54
2018-09-15T22:50:54.294Z,70.23
2018-09-15T22:53:23.890Z,70.26
2018-09-15T22:55:53.098Z,70.34
2018-09-15T22:58:22.731Z,70.14
2018-09-15T23:00:52.114Z,70.33
2018-09-15T23:03:21.515Z,70.35
2018-09-15T23:05:51.110Z,70.68
2018-09-15T23:08:19.830Z,70.84
2018-09-15T23:10:48.794Z,70.75
2018-09-15T23:13:17.900Z,70.97
2018-09-15T23:15:47.412Z,70.77
2018-09-15T23:18:16.583Z,70.99
2018-09-15T23:20:46.005Z,71.00
2018-09-15T23:23:15.106Z,71.30
2018-09-15T23:25:44.306Z,71.29
2018-09-15T23:28:13.626Z,71.67
2018-09-15T23:30:42.684Z,72.07
2018-09-15T23:33:11.394Z,72.07
2018-09-15T23:35:40.935Z,72.41
2018-09-15T23:38:09.994Z,72.53
2018-09-15T23:40:39.087Z,72.89
2018-09-15T23:43:07.999Z,72.81
2018-09-15T23:45:37.166Z,72.61
2018-09-15T23:48:05.855Z,73.14
2018-09-15T23:50:35.603Z,73.25
2018-09-15T23:53:04.563Z,73.69
2018-09-15T23:55:34.099Z,73.54
2018-09-15T23:58:03.709Z,74.22
